sensor_id;sensor_type;location;lat;lon;timestamp;pressure;altitude;pressure_sealevel;temperature;humidity
68654;BME280;55636;51.108;13.622;2022-09-09T00:00:20;99950.84;;;15.04;60.99
68654;BME280;55636;51.108;13.622;2022-09-09T00:02:34;99942.81;;;15.03;60.89
68654;BME280;55636;51.108;13.622;2022-09-09T00:05:20;99954.19;;;15.01;60.91
68654;BME280;55636;51.108;13.622;2022-09-09T00:06:30;99948.63;;;15.01;60.82
68654;BME280;55636;51.108;13.622;2022-09-09T00:07:52;99955.34;;;15.00;60.78
68654;BME280;55636;51.108;13.622;2022-09-09T00:09:12;99954.50;;;14.99;60.95
68654;BME280;55636;51.108;13.622;2022-09-09T00:11:54;99953.16;;;14.97;61.22
68654;BME280;55636;51.108;13.622;2022-09-09T00:16:07;99941.53;;;14.95;60.99
68654;BME280;55636;51.108;13.622;2022-09-09T00:18:57;99944.06;;;14.91;61.05
68654;BME280;55636;51.108;13.622;2022-09-09T00:20:14;99944.38;;;14.90;61.11
68654;BME280;55636;51.108;13.622;2022-09-09T00:21:19;99947.47;;;14.88;61.33
68654;BME280;55636;51.108;13.622;2022-09-09T00:22:26;99945.81;;;14.87;61.22
68654;BME280;55636;51.108;13.622;2022-09-09T00:23:34;99937.75;;;14.86;61.10
68654;BME280;55636;51.108;13.622;2022-09-09T00:24:43;99952.78;;;14.85;61.36
68654;BME280;55636;51.108;13.622;2022-09-09T00:27:01;99943.09;;;14.82;61.25
68654;BME280;55636;51.108;13.622;2022-09-09T00:28:16;99946.69;;;14.82;61.02
68654;BME280;55636;51.108;13.622;2022-09-09T00:29:36;99939.47;;;14.81;61.14
68654;BME280;55636;51.108;13.622;2022-09-09T00:30:44;99943.41;;;14.80;61.10
68654;BME280;55636;51.108;13.622;2022-09-09T00:31:53;99936.16;;;14.79;60.85
68654;BME280;55636;51.108;13.622;2022-09-09T00:33:00;99930.91;;;14.78;61.04
68654;BME280;55636;51.108;13.622;2022-09-09T00:34:13;99929.25;;;14.77;60.97
68654;BME280;55636;51.108;13.622;2022-09-09T00:35:29;99938.72;;;14.76;61.15
68654;BME280;55636;51.108;13.622;2022-09-09T00:36:32;99939.53;;;14.76;61.08
68654;BME280;55636;51.108;13.622;2022-09-09T00:37:37;99936.25;;;14.74;61.17
68654;BME280;55636;51.108;13.622;2022-09-09T00:38:44;99933.47;;;14.74;61.33
68654;BME280;55636;51.108;13.622;2022-09-09T00:39:49;99942.91;;;14.73;61.13
68654;BME280;55636;51.108;13.622;2022-09-09T00:42:17;99934.00;;;14.71;61.43
68654;BME280;55636;51.108;13.622;2022-09-09T00:44:35;99933.81;;;14.68;61.53
68654;BME280;55636;51.108;13.622;2022-09-09T00:46:59;99934.31;;;14.70;61.15
68654;BME280;55636;51.108;13.622;2022-09-09T00:48:12;99931.03;;;14.68;60.90
68654;BME280;55636;51.108;13.622;2022-09-09T00:50:51;99931.31;;;14.66;60.99
68654;BME280;55636;51.108;13.622;2022-09-09T00:58:15;99937.78;;;14.61;61.19
68654;BME280;55636;51.108;13.622;2022-09-09T00:59:47;99944.13;;;14.62;60.82
68654;BME280;55636;51.108;13.622;2022-09-09T01:02:18;99941.66;;;14.60;60.86
68654;BME280;55636;51.108;13.622;2022-09-09T01:04:36;99947.22;;;14.60;60.72
68654;BME280;55636;51.108;13.622;2022-09-09T01:06:49;99944.75;;;14.59;60.84
68654;BME280;55636;51.108;13.622;2022-09-09T01:07:57;99946.16;;;14.56;60.70
68654;BME280;55636;51.108;13.622;2022-09-09T01:13:13;99943.69;;;14.55;60.53
68654;BME280;55636;51.108;13.622;2022-09-09T01:14:40;99937.28;;;14.54;60.81
68654;BME280;55636;51.108;13.622;2022-09-09T01:15:44;99939.25;;;14.54;60.50
68654;BME280;55636;51.108;13.622;2022-09-09T01:16:50;99941.22;;;14.53;60.81
68654;BME280;55636;51.108;13.622;2022-09-09T01:18:15;99940.38;;;14.53;60.64
68654;BME280;55636;51.108;13.622;2022-09-09T01:19:38;99937.91;;;14.51;60.72
68654;BME280;55636;51.108;13.622;2022-09-09T01:20:58;99942.63;;;14.51;60.64
68654;BME280;55636;51.108;13.622;2022-09-09T01:22:40;99947.34;;;14.50;61.07
68654;BME280;55636;51.108;13.622;2022-09-09T01:25:29;99947.66;;;14.48;60.95
68654;BME280;55636;51.108;13.622;2022-09-09T01:26:43;99948.78;;;14.47;60.82
68654;BME280;55636;51.108;13.622;2022-09-09T01:27:58;99946.28;;;14.46;61.01
68654;BME280;55636;51.108;13.622;2022-09-09T01:29:08;99944.63;;;14.45;61.01
68654;BME280;55636;51.108;13.622;2022-09-09T01:30:16;99944.94;;;14.43;60.94
68654;BME280;55636;51.108;13.622;2022-09-09T01:31:32;99942.47;;;14.42;60.91
68654;BME280;55636;51.108;13.622;2022-09-09T01:32:53;99939.69;;;14.42;60.86
68654;BME280;55636;51.108;13.622;2022-09-09T01:33:56;99944.44;;;14.41;60.77
68654;BME280;55636;51.108;13.622;2022-09-09T01:34:58;99953.88;;;14.40;60.65
68654;BME280;55636;51.108;13.622;2022-09-09T01:36:09;99944.69;;;14.40;60.89
68654;BME280;55636;51.108;13.622;2022-09-09T01:37:20;99941.41;;;14.38;60.83
68654;BME280;55636;51.108;13.622;2022-09-09T01:38:24;99949.44;;;14.39;60.73
68654;BME280;55636;51.108;13.622;2022-09-09T01:39:28;99939.44;;;14.38;60.74
68654;BME280;55636;51.108;13.622;2022-09-09T01:40:37;99941.41;;;14.38;60.70
68654;BME280;55636;51.108;13.622;2022-09-09T01:41:40;99946.66;;;14.39;60.89
68654;BME280;55636;51.108;13.622;2022-09-09T01:42:46;99944.19;;;14.38;61.07
68654;BME280;55636;51.108;13.622;2022-09-09T01:43:48;99938.09;;;14.36;60.82
68654;BME280;55636;51.108;13.622;2022-09-09T01:44:51;99946.66;;;14.39;61.00
68654;BME280;55636;51.108;13.622;2022-09-09T01:45:55;99940.56;;;14.37;60.99
68654;BME280;55636;51.108;13.622;2022-09-09T01:46:58;99933.38;;;14.36;61.22
68654;BME280;55636;51.108;13.622;2022-09-09T01:48:01;99936.16;;;14.36;61.09
68654;BME280;55636;51.108;13.622;2022-09-09T01:49:19;99936.16;;;14.36;60.98
68654;BME280;55636;51.108;13.622;2022-09-09T01:50:22;99940.84;;;14.36;61.25
68654;BME280;55636;51.108;13.622;2022-09-09T01:51:25;99934.50;;;14.35;61.15
68654;BME280;55636;51.108;13.622;2022-09-09T01:52:27;99929.75;;;14.36;61.13
68654;BME280;55636;51.108;13.622;2022-09-09T01:53:29;99935.59;;;14.34;60.88
68654;BME280;55636;51.108;13.622;2022-09-09T01:54:32;99936.16;;;14.36;61.31
68654;BME280;55636;51.108;13.622;2022-09-09T01:55:42;99940.03;;;14.35;60.94
68654;BME280;55636;51.108;13.622;2022-09-09T01:57:26;99938.38;;;14.34;61.28
68654;BME280;55636;51.108;13.622;2022-09-09T02:00:12;99934.50;;;14.35;60.85
68654;BME280;55636;51.108;13.622;2022-09-09T02:02:37;99929.22;;;14.33;60.88
68654;BME280;55636;51.108;13.622;2022-09-09T02:03:52;99929.50;;;14.32;60.99
68654;BME280;55636;51.108;13.622;2022-09-09T02:05:10;99923.94;;;14.32;60.96
68654;BME280;55636;51.108;13.622;2022-09-09T02:06:37;99925.91;;;14.31;60.99
68654;BME280;55636;51.108;13.622;2022-09-09T02:09:24;99921.47;;;14.30;60.66
68654;BME280;55636;51.108;13.622;2022-09-09T02:10:34;99929.00;;;14.30;60.65
68654;BME280;55636;51.108;13.622;2022-09-09T02:11:47;99926.50;;;14.28;60.64
68654;BME280;55636;51.108;13.622;2022-09-09T02:13:22;99927.34;;;14.29;60.70
68654;BME280;55636;51.108;13.622;2022-09-09T02:14:30;99931.22;;;14.28;60.67
68654;BME280;55636;51.108;13.622;2022-09-09T02:15:46;99927.63;;;14.27;60.80
68654;BME280;55636;51.108;13.622;2022-09-09T02:16:54;99925.16;;;14.26;60.89
68654;BME280;55636;51.108;13.622;2022-09-09T02:18:07;99924.31;;;14.25;60.62
68654;BME280;55636;51.108;13.622;2022-09-09T02:19:15;99925.16;;;14.26;60.68
68654;BME280;55636;51.108;13.622;2022-09-09T02:20:39;99929.06;;;14.25;60.93
68654;BME280;55636;51.108;13.622;2022-09-09T02:21:44;99930.16;;;14.24;60.82
68654;BME280;55636;51.108;13.622;2022-09-09T02:22:50;99933.78;;;14.24;60.81
68654;BME280;55636;51.108;13.622;2022-09-09T02:23:55;99932.94;;;14.24;60.82
68654;BME280;55636;51.108;13.622;2022-09-09T02:25:01;99929.06;;;14.25;61.12
68654;BME280;55636;51.108;13.622;2022-09-09T02:26:05;99936.84;;;14.23;60.82
68654;BME280;55636;51.108;13.622;2022-09-09T02:27:08;99938.00;;;14.22;60.76
68654;BME280;55636;51.108;13.622;2022-09-09T02:28:15;99940.47;;;14.23;60.86
68654;BME280;55636;51.108;13.622;2022-09-09T02:29:23;99940.75;;;14.22;60.90
68654;BME280;55636;51.108;13.622;2022-09-09T02:30:29;99939.91;;;14.21;60.93
68654;BME280;55636;51.108;13.622;2022-09-09T02:31:36;99941.88;;;14.21;60.85
68654;BME280;55636;51.108;13.622;2022-09-09T02:32:44;99931.59;;;14.21;60.96
68654;BME280;55636;51.108;13.622;2022-09-09T02:33:59;99940.22;;;14.20;60.74
68654;BME280;55636;51.108;13.622;2022-09-09T02:35:06;99933.56;;;14.21;60.87
68654;BME280;55636;51.108;13.622;2022-09-09T02:36:12;99934.66;;;14.20;60.82
68654;BME280;55636;51.108;13.622;2022-09-09T02:37:20;99939.09;;;14.21;60.88
68654;BME280;55636;51.108;13.622;2022-09-09T02:38:29;99943.81;;;14.20;60.82
68654;BME280;55636;51.108;13.622;2022-09-09T02:39:40;99938.25;;;14.20;60.82
68654;BME280;55636;51.108;13.622;2022-09-09T02:40:46;99929.13;;;14.20;60.97
68654;BME280;55636;51.108;13.622;2022-09-09T02:41:49;99937.75;;;14.18;60.87
68654;BME280;55636;51.108;13.622;2022-09-09T02:42:54;99931.06;;;14.19;60.82
68654;BME280;55636;51.108;13.622;2022-09-09T02:43:57;99938.56;;;14.19;60.56
68654;BME280;55636;51.108;13.622;2022-09-09T02:45:00;99932.19;;;14.18;60.95
68654;BME280;55636;51.108;13.622;2022-09-09T02:46:22;99937.75;;;14.18;61.00
68654;BME280;55636;51.108;13.622;2022-09-09T02:47:33;99942.44;;;14.18;60.81
68654;BME280;55636;51.108;13.622;2022-09-09T02:48:52;99935.28;;;14.16;60.76
68654;BME280;55636;51.108;13.622;2022-09-09T02:50:05;99939.69;;;14.18;60.69
68654;BME280;55636;51.108;13.622;2022-09-09T02:53:18;99942.44;;;14.18;60.54
68654;BME280;55636;51.108;13.622;2022-09-09T02:54:29;99936.91;;;14.18;60.32
68654;BME280;55636;51.108;13.622;2022-09-09T02:55:41;99937.75;;;14.18;60.51
68654;BME280;55636;51.108;13.622;2022-09-09T02:56:53;99933.00;;;14.19;60.41
68654;BME280;55636;51.108;13.622;2022-09-09T02:58:09;99934.97;;;14.18;60.52
68654;BME280;55636;51.108;13.622;2022-09-09T02:59:14;99934.13;;;14.18;60.56
68654;BME280;55636;51.108;13.622;2022-09-09T03:00:25;99938.56;;;14.19;60.47
68654;BME280;55636;51.108;13.622;2022-09-09T03:01:32;99941.34;;;14.19;60.40
68654;BME280;55636;51.108;13.622;2022-09-09T03:02:38;99931.34;;;14.18;60.71
68654;BME280;55636;51.108;13.622;2022-09-09T03:03:42;99940.53;;;14.18;60.38
68654;BME280;55636;51.108;13.622;2022-09-09T03:04:49;99928.56;;;14.18;60.34
68654;BME280;55636;51.108;13.622;2022-09-09T03:05:55;99948.00;;;14.18;60.39
68654;BME280;55636;51.108;13.622;2022-09-09T03:06:58;99939.69;;;14.18;60.41
68654;BME280;55636;51.108;13.622;2022-09-09T03:08:01;99944.13;;;14.19;60.58
68654;BME280;55636;51.108;13.622;2022-09-09T03:09:04;99946.06;;;14.18;60.73
68654;BME280;55636;51.108;13.622;2022-09-09T03:10:07;99942.44;;;14.18;60.42
68654;BME280;55636;51.108;13.622;2022-09-09T03:11:10;99928.56;;;14.18;60.64
68654;BME280;55636;51.108;13.622;2022-09-09T03:12:13;99934.13;;;14.18;60.86
68654;BME280;55636;51.108;13.622;2022-09-09T03:13:15;99936.91;;;14.18;60.63
68654;BME280;55636;51.108;13.622;2022-09-09T03:14:18;99930.22;;;14.19;60.66
68654;BME280;55636;51.108;13.622;2022-09-09T03:15:24;99936.91;;;14.18;60.82
68654;BME280;55636;51.108;13.622;2022-09-09T03:16:33;99936.09;;;14.17;60.71
68654;BME280;55636;51.108;13.622;2022-09-09T03:17:36;99941.63;;;14.17;60.79
68654;BME280;55636;51.108;13.622;2022-09-09T03:18:39;99934.97;;;14.18;60.82
68654;BME280;55636;51.108;13.622;2022-09-09T03:19:41;99941.34;;;14.19;60.81
68654;BME280;55636;51.108;13.622;2022-09-09T03:20:45;99939.69;;;14.18;60.70
68654;BME280;55636;51.108;13.622;2022-09-09T03:21:51;99943.31;;;14.18;60.98
68654;BME280;55636;51.108;13.622;2022-09-09T03:22:54;99942.44;;;14.18;60.80
68654;BME280;55636;51.108;13.622;2022-09-09T03:23:56;99941.63;;;14.17;60.85
68654;BME280;55636;51.108;13.622;2022-09-09T03:24:59;99940.53;;;14.18;60.66
68654;BME280;55636;51.108;13.622;2022-09-09T03:26:02;99945.53;;;14.16;60.90
68654;BME280;55636;51.108;13.622;2022-09-09T03:27:18;99943.88;;;14.15;60.94
68654;BME280;55636;51.108;13.622;2022-09-09T03:28:21;99937.50;;;14.14;61.10
68654;BME280;55636;51.108;13.622;2022-09-09T03:29:25;99933.91;;;14.14;61.14
68654;BME280;55636;51.108;13.622;2022-09-09T03:30:46;99943.06;;;14.14;61.11
68654;BME280;55636;51.108;13.622;2022-09-09T03:31:49;99935.03;;;14.13;61.14
68654;BME280;55636;51.108;13.622;2022-09-09T03:32:53;99943.88;;;14.15;61.02
68654;BME280;55636;51.108;13.622;2022-09-09T03:33:58;99932.25;;;14.13;61.24
68654;BME280;55636;51.108;13.622;2022-09-09T03:35:05;99936.94;;;14.12;61.17
68654;BME280;55636;51.108;13.622;2022-09-09T03:36:08;99934.19;;;14.12;60.99
68654;BME280;55636;51.108;13.622;2022-09-09T03:37:10;99932.00;;;14.09;61.30
68654;BME280;55636;51.108;13.622;2022-09-09T03:38:14;99935.59;;;14.10;61.18
68654;BME280;55636;51.108;13.622;2022-09-09T03:39:16;99930.34;;;14.08;60.99
68654;BME280;55636;51.108;13.622;2022-09-09T03:40:18;99934.78;;;14.09;60.91
68654;BME280;55636;51.108;13.622;2022-09-09T03:41:23;99933.97;;;14.09;60.87
68654;BME280;55636;51.108;13.622;2022-09-09T03:42:26;99929.53;;;14.08;60.95
68654;BME280;55636;51.108;13.622;2022-09-09T03:43:30;99929.81;;;14.06;61.00
68654;BME280;55636;51.108;13.622;2022-09-09T03:44:33;99937.00;;;14.07;61.08
68654;BME280;55636;51.108;13.622;2022-09-09T03:45:35;99929.53;;;14.08;60.99
68654;BME280;55636;51.108;13.622;2022-09-09T03:46:37;99932.59;;;14.06;61.02
68654;BME280;55636;51.108;13.622;2022-09-09T03:47:40;99938.97;;;14.07;60.84
68654;BME280;55636;51.108;13.622;2022-09-09T03:48:42;99942.56;;;14.07;61.19
68654;BME280;55636;51.108;13.622;2022-09-09T03:49:45;99929.81;;;14.06;60.96
68654;BME280;55636;51.108;13.622;2022-09-09T03:50:52;99941.19;;;14.05;61.12
68654;BME280;55636;51.108;13.622;2022-09-09T03:51:56;99939.78;;;14.07;61.04
68654;BME280;55636;51.108;13.622;2022-09-09T03:52:59;99939.78;;;14.07;60.95
68654;BME280;55636;51.108;13.622;2022-09-09T03:54:01;99937.31;;;14.06;60.87
68654;BME280;55636;51.108;13.622;2022-09-09T03:55:04;99941.75;;;14.07;60.99
68654;BME280;55636;51.108;13.622;2022-09-09T03:56:07;99941.75;;;14.07;60.89
68654;BME280;55636;51.108;13.622;2022-09-09T03:57:09;99933.41;;;14.07;60.70
68654;BME280;55636;51.108;13.622;2022-09-09T03:58:13;99937.31;;;14.06;60.83
68654;BME280;55636;51.108;13.622;2022-09-09T03:59:16;99944.53;;;14.07;60.69
68654;BME280;55636;51.108;13.622;2022-09-09T04:00:19;99942.56;;;14.07;60.76
68654;BME280;55636;51.108;13.622;2022-09-09T04:01:26;99943.72;;;14.06;60.86
68654;BME280;55636;51.108;13.622;2022-09-09T04:02:29;99934.53;;;14.06;60.88
68654;BME280;55636;51.108;13.622;2022-09-09T04:03:31;99945.63;;;14.06;60.97
68654;BME280;55636;51.108;13.622;2022-09-09T04:04:35;99937.31;;;14.06;61.17
68654;BME280;55636;51.108;13.622;2022-09-09T04:05:41;99933.72;;;14.05;61.09
68654;BME280;55636;51.108;13.622;2022-09-09T04:06:45;99946.75;;;14.05;60.99
68654;BME280;55636;51.108;13.622;2022-09-09T04:07:49;99941.19;;;14.05;60.98
68654;BME280;55636;51.108;13.622;2022-09-09T04:08:53;99945.13;;;14.04;60.96
68654;BME280;55636;51.108;13.622;2022-09-09T04:09:55;99947.91;;;14.04;61.25
68654;BME280;55636;51.108;13.622;2022-09-09T04:10:58;99945.13;;;14.04;61.14
68654;BME280;55636;51.108;13.622;2022-09-09T04:12:02;99952.59;;;14.03;61.44
68654;BME280;55636;51.108;13.622;2022-09-09T04:13:05;99947.91;;;14.04;61.05
68654;BME280;55636;51.108;13.622;2022-09-09T04:14:07;99947.91;;;14.04;61.22
68654;BME280;55636;51.108;13.622;2022-09-09T04:15:10;99955.69;;;14.02;61.32
68654;BME280;55636;51.108;13.622;2022-09-09T04:16:14;99966.78;;;14.02;61.30
68654;BME280;55636;51.108;13.622;2022-09-09T04:17:18;99961.53;;;14.00;61.47
68654;BME280;55636;51.108;13.622;2022-09-09T04:18:21;99955.97;;;14.00;61.40
68654;BME280;55636;51.108;13.622;2022-09-09T04:19:23;99944.06;;;13.99;61.50
68654;BME280;55636;51.108;13.622;2022-09-09T04:20:26;99949.63;;;13.99;61.42
68654;BME280;55636;51.108;13.622;2022-09-09T04:21:28;99946.84;;;13.99;61.23
68654;BME280;55636;51.108;13.622;2022-09-09T04:22:30;99955.44;;;13.98;61.38
68654;BME280;55636;51.108;13.622;2022-09-09T04:23:34;99957.09;;;13.99;61.24
68654;BME280;55636;51.108;13.622;2022-09-09T04:24:36;99947.09;;;13.98;61.24
68654;BME280;55636;51.108;13.622;2022-09-09T04:25:44;99944.34;;;13.98;61.52
68654;BME280;55636;51.108;13.622;2022-09-09T04:26:46;99957.41;;;13.97;61.50
68654;BME280;55636;51.108;13.622;2022-09-09T04:27:54;99947.41;;;13.96;61.46
68654;BME280;55636;51.108;13.622;2022-09-09T04:28:57;99951.84;;;13.97;61.83
68654;BME280;55636;51.108;13.622;2022-09-09T04:29:59;99949.38;;;13.96;61.67
68654;BME280;55636;51.108;13.622;2022-09-09T04:31:17;99952.16;;;13.96;61.61
68654;BME280;55636;51.108;13.622;2022-09-09T04:32:21;99942.16;;;13.95;61.64
68654;BME280;55636;51.108;13.622;2022-09-09T04:33:24;99948.53;;;13.95;61.57
68654;BME280;55636;51.108;13.622;2022-09-09T04:34:28;99937.72;;;13.94;61.55
68654;BME280;55636;51.108;13.622;2022-09-09T04:35:31;99948.53;;;13.95;61.77
68654;BME280;55636;51.108;13.622;2022-09-09T04:36:33;99955.22;;;13.94;61.74
68654;BME280;55636;51.108;13.622;2022-09-09T04:37:38;99960.47;;;13.96;61.76
68654;BME280;55636;51.108;13.622;2022-09-09T04:38:42;99940.19;;;13.95;61.66
68654;BME280;55636;51.108;13.622;2022-09-09T04:39:44;99952.16;;;13.96;61.66
68654;BME280;55636;51.108;13.622;2022-09-09T04:40:47;99956.03;;;13.95;61.71
68654;BME280;55636;51.108;13.622;2022-09-09T04:41:50;99946.88;;;13.94;61.76
68654;BME280;55636;51.108;13.622;2022-09-09T04:42:52;99954.06;;;13.95;61.86
68654;BME280;55636;51.108;13.622;2022-09-09T04:43:54;99951.28;;;13.95;61.64
68654;BME280;55636;51.108;13.622;2022-09-09T04:44:57;99953.56;;;13.93;61.79
68654;BME280;55636;51.108;13.622;2022-09-09T04:45:59;99959.94;;;13.94;61.78
68654;BME280;55636;51.108;13.622;2022-09-09T04:47:01;99957.16;;;13.94;61.67
68654;BME280;55636;51.108;13.622;2022-09-09T04:48:03;99967.44;;;13.93;62.04
68654;BME280;55636;51.108;13.622;2022-09-09T04:49:06;99965.47;;;13.94;61.87
68654;BME280;55636;51.108;13.622;2022-09-09T04:50:14;99967.13;;;13.95;61.74
68654;BME280;55636;51.108;13.622;2022-09-09T04:51:20;99947.72;;;13.95;61.78
68654;BME280;55636;51.108;13.622;2022-09-09T04:52:24;99962.41;;;13.95;61.87
68654;BME280;55636;51.108;13.622;2022-09-09T04:53:27;99959.63;;;13.95;62.09
68654;BME280;55636;51.108;13.622;2022-09-09T04:54:29;99966.84;;;13.96;61.62
68654;BME280;55636;51.108;13.622;2022-09-09T04:55:33;99963.25;;;13.96;62.01
68654;BME280;55636;51.108;13.622;2022-09-09T04:56:36;99953.25;;;13.95;62.01
68654;BME280;55636;51.108;13.622;2022-09-09T04:57:39;99966.31;;;13.94;61.94
68654;BME280;55636;51.108;13.622;2022-09-09T04:58:45;99959.94;;;13.94;62.17
68654;BME280;55636;51.108;13.622;2022-09-09T04:59:49;99957.16;;;13.94;61.92
68654;BME280;55636;51.108;13.622;2022-09-09T05:00:51;99958.00;;;13.94;61.99
68654;BME280;55636;51.108;13.622;2022-09-09T05:01:54;99963.56;;;13.94;62.33
68654;BME280;55636;51.108;13.622;2022-09-09T05:02:57;99966.84;;;13.96;62.08
68654;BME280;55636;51.108;13.622;2022-09-09T05:03:59;99956.59;;;13.97;62.21
68654;BME280;55636;51.108;13.622;2022-09-09T05:05:02;99964.06;;;13.96;62.12
68654;BME280;55636;51.108;13.622;2022-09-09T05:06:10;99957.69;;;13.96;61.98
68654;BME280;55636;51.108;13.622;2022-09-09T05:07:13;99960.47;;;13.96;62.23
68654;BME280;55636;51.108;13.622;2022-09-09T05:08:17;99970.16;;;13.98;62.10
68654;BME280;55636;51.108;13.622;2022-09-09T05:09:20;99966.53;;;13.98;62.05
68654;BME280;55636;51.108;13.622;2022-09-09T05:10:22;99957.41;;;13.97;62.06
68654;BME280;55636;51.108;13.622;2022-09-09T05:11:26;99964.63;;;13.98;62.37
68654;BME280;55636;51.108;13.622;2022-09-09T05:12:34;99970.69;;;14.00;62.39
68654;BME280;55636;51.108;13.622;2022-09-09T05:13:36;99964.31;;;14.00;62.25
68654;BME280;55636;51.108;13.622;2022-09-09T05:14:43;99962.34;;;14.00;62.58
68654;BME280;55636;51.108;13.622;2022-09-09T05:15:52;99963.19;;;14.01;62.26
68654;BME280;55636;51.108;13.622;2022-09-09T05:16:55;99967.34;;;14.04;62.37
68654;BME280;55636;51.108;13.622;2022-09-09T05:18:00;99972.91;;;14.04;62.35
68654;BME280;55636;51.108;13.622;2022-09-09T05:19:05;99967.34;;;14.04;62.31
68654;BME280;55636;51.108;13.622;2022-09-09T05:20:19;99965.94;;;14.06;62.33
68654;BME280;55636;51.108;13.622;2022-09-09T05:21:23;99966.75;;;14.07;62.62
68654;BME280;55636;51.108;13.622;2022-09-09T05:22:26;99967.28;;;14.09;62.65
68654;BME280;55636;51.108;13.622;2022-09-09T05:23:28;99967.81;;;14.11;62.55
68654;BME280;55636;51.108;13.622;2022-09-09T05:24:31;99969.16;;;14.13;62.36
68654;BME280;55636;51.108;13.622;2022-09-09T05:25:35;99967.75;;;14.16;62.76
68654;BME280;55636;51.108;13.622;2022-09-09T05:26:39;99974.97;;;14.17;62.62
68654;BME280;55636;51.108;13.622;2022-09-09T05:27:42;99977.44;;;14.19;62.36
68654;BME280;55636;51.108;13.622;2022-09-09T05:28:45;99976.03;;;14.21;62.32
68654;BME280;55636;51.108;13.622;2022-09-09T05:29:48;99978.50;;;14.23;62.54
68654;BME280;55636;51.108;13.622;2022-09-09T05:30:57;99974.63;;;14.24;62.31
68654;BME280;55636;51.108;13.622;2022-09-09T05:32:02;99982.34;;;14.27;62.50
68654;BME280;55636;51.108;13.622;2022-09-09T05:33:04;99980.13;;;14.29;62.31
68654;BME280;55636;51.108;13.622;2022-09-09T05:34:08;99977.34;;;14.29;62.38
68654;BME280;55636;51.108;13.622;2022-09-09T05:35:10;99990.63;;;14.32;62.30
68654;BME280;55636;51.108;13.622;2022-09-09T05:36:15;99981.72;;;14.35;62.37
68654;BME280;55636;51.108;13.622;2022-09-09T05:37:20;99996.13;;;14.37;62.51
68654;BME280;55636;51.108;13.622;2022-09-09T05:38:23;99985.56;;;14.39;62.32
68654;BME280;55636;51.108;13.622;2022-09-09T05:39:30;99985.25;;;14.41;62.28
68654;BME280;55636;51.108;13.622;2022-09-09T05:40:32;99988.59;;;14.43;62.01
68654;BME280;55636;51.108;13.622;2022-09-09T05:41:34;99999.09;;;14.46;61.88
68654;BME280;55636;51.108;13.622;2022-09-09T05:42:39;99996.31;;;14.46;61.96
68654;BME280;55636;51.108;13.622;2022-09-09T05:43:42;99997.97;;;14.47;62.19
68654;BME280;55636;51.108;13.622;2022-09-09T05:44:47;99998.22;;;14.51;61.93
68654;BME280;55636;51.108;13.622;2022-09-09T05:46:08;99995.44;;;14.51;61.76
68654;BME280;55636;51.108;13.622;2022-09-09T05:47:11;99986.50;;;14.54;61.92
68654;BME280;55636;51.108;13.622;2022-09-09T05:48:14;100000.09;;;14.55;61.76
68654;BME280;55636;51.108;13.622;2022-09-09T05:49:18;99988.69;;;14.57;62.05
68654;BME280;55636;51.108;13.622;2022-09-09T05:50:22;99995.59;;;14.59;62.04
68654;BME280;55636;51.108;13.622;2022-09-09T05:51:28;99997.25;;;14.60;62.03
68654;BME280;55636;51.108;13.622;2022-09-09T05:52:34;99990.59;;;14.61;61.95
68654;BME280;55636;51.108;13.622;2022-09-09T05:53:36;99994.41;;;14.65;62.00
68654;BME280;55636;51.108;13.622;2022-09-09T05:54:39;99989.16;;;14.64;61.94
68654;BME280;55636;51.108;13.622;2022-09-09T05:55:43;99998.56;;;14.68;61.76
68654;BME280;55636;51.108;13.622;2022-09-09T05:56:47;99994.66;;;14.69;61.56
68654;BME280;55636;51.108;13.622;2022-09-09T05:57:53;100001.03;;;14.70;61.73
68654;BME280;55636;51.108;13.622;2022-09-09T05:58:55;100004.34;;;14.72;61.73
68654;BME280;55636;51.108;13.622;2022-09-09T05:59:58;100002.38;;;14.72;61.76
68654;BME280;55636;51.108;13.622;2022-09-09T06:01:06;100008.81;;;14.73;61.67
68654;BME280;55636;51.108;13.622;2022-09-09T06:02:09;100006.88;;;14.73;61.78
68654;BME280;55636;51.108;13.622;2022-09-09T06:03:12;100007.41;;;14.75;61.74
68654;BME280;55636;51.108;13.622;2022-09-09T06:04:14;100006.56;;;14.75;61.58
68654;BME280;55636;51.108;13.622;2022-09-09T06:05:17;100007.09;;;14.77;61.45
68654;BME280;55636;51.108;13.622;2022-09-09T06:06:25;100011.53;;;14.78;61.68
68654;BME280;55636;51.108;13.622;2022-09-09T06:07:30;100006.50;;;14.80;61.50
68654;BME280;55636;51.108;13.622;2022-09-09T06:08:34;100003.72;;;14.80;61.80
68654;BME280;55636;51.108;13.622;2022-09-09T06:09:39;100008.97;;;14.81;61.79
68654;BME280;55636;51.108;13.622;2022-09-09T06:10:42;100007.56;;;14.84;61.97
68654;BME280;55636;51.108;13.622;2022-09-09T06:11:45;100000.88;;;14.85;61.69
68654;BME280;55636;51.108;13.622;2022-09-09T06:12:52;100010.88;;;14.86;61.88
68654;BME280;55636;51.108;13.622;2022-09-09T06:13:54;100007.28;;;14.86;61.81
68654;BME280;55636;51.108;13.622;2022-09-09T06:14:56;100000.28;;;14.88;61.85
68654;BME280;55636;51.108;13.622;2022-09-09T06:15:59;100001.94;;;14.89;61.92
68654;BME280;55636;51.108;13.622;2022-09-09T06:17:02;100006.91;;;14.92;61.89
68654;BME280;55636;51.108;13.622;2022-09-09T06:18:05;100006.59;;;14.94;61.62
68654;BME280;55636;51.108;13.622;2022-09-09T06:19:07;100009.09;;;14.95;61.59
68654;BME280;55636;51.108;13.622;2022-09-09T06:20:10;100010.44;;;14.98;61.80
68654;BME280;55636;51.108;13.622;2022-09-09T06:21:17;100008.47;;;14.98;61.69
68654;BME280;55636;51.108;13.622;2022-09-09T06:22:21;100011.78;;;15.01;61.76
68654;BME280;55636;51.108;13.622;2022-09-09T06:23:25;100005.13;;;15.02;61.62
68654;BME280;55636;51.108;13.622;2022-09-09T06:24:28;100009.56;;;15.03;61.31
68654;BME280;55636;51.108;13.622;2022-09-09T06:25:33;100005.63;;;15.04;61.46